createdAt,value
2024-02-10T00:00:07.894Z,10.54
2024-02-10T00:03:38.156Z,10.54
2024-02-10T00:07:01.000Z,10.48
2024-02-10T00:10:33.032Z,10.49
2024-02-10T00:13:56.318Z,10.47
2024-02-10T00:17:18.775Z,10.51
2024-02-10T00:20:44.474Z,10.64
2024-02-10T00:24:09.808Z,10.69
2024-02-10T00:27:34.036Z,10.71
2024-02-10T00:31:06.190Z,10.77
2024-02-10T00:34:31.179Z,10.81
2024-02-10T00:37:57.861Z,10.90
2024-02-10T00:41:20.971Z,11.01
2024-02-10T00:44:52.501Z,10.92
2024-02-10T00:48:15.411Z,10.96
2024-02-10T00:51:44.670Z,10.96
2024-02-10T00:55:07.906Z,11.17
2024-02-10T00:58:30.767Z,11.12
2024-02-10T01:01:57.349Z,11.25
2024-02-10T01:05:21.405Z,11.12
2024-02-10T01:08:48.182Z,11.12
2024-02-10T01:12:11.185Z,11.21
2024-02-10T01:15:37.031Z,11.34
2024-02-10T01:19:00.602Z,11.46
2024-02-10T01:22:24.778Z,11.49
2024-02-10T01:25:51.626Z,11.36
2024-02-10T01:29:14.677Z,11.37
2024-02-10T01:32:37.779Z,11.49
2024-02-10T01:36:04.662Z,11.41
2024-02-10T01:39:35.041Z,11.60
2024-02-10T01:42:57.697Z,11.63
2024-02-10T01:46:22.487Z,11.51
2024-02-10T01:49:45.248Z,11.55
2024-02-10T01:53:11.758Z,11.56
2024-02-10T01:56:35.234Z,11.44
2024-02-10T02:00:00.713Z,11.48
2024-02-10T02:03:24.564Z,11.50
2024-02-10T02:06:47.464Z,11.33
2024-02-10T02:10:12.389Z,11.47
2024-02-10T02:13:36.609Z,11.50
2024-02-10T02:16:59.246Z,11.52
2024-02-10T02:20:24.560Z,11.61
2024-02-10T02:23:49.136Z,11.54
2024-02-10T02:27:14.830Z,11.54
2024-02-10T02:30:39.288Z,11.57
2024-02-10T02:34:06.162Z,11.60
2024-02-10T02:37:34.259Z,11.57
2024-02-10T02:40:58.991Z,11.42
2024-02-10T02:44:23.828Z,11.53
2024-02-10T02:47:46.482Z,11.67
2024-02-10T02:51:08.975Z,11.56
2024-02-10T02:54:36.942Z,11.44
2024-02-10T02:58:04.170Z,11.55
2024-02-10T03:01:27.306Z,11.54
2024-02-10T03:04:49.969Z,11.54
2024-02-10T03:08:13.096Z,11.55
2024-02-10T03:11:38.382Z,11.60
2024-02-10T03:15:03.882Z,11.70
2024-02-10T03:18:29.908Z,11.62
2024-02-10T03:21:52.592Z,11.71
2024-02-10T03:25:16.691Z,11.60
2024-02-10T03:28:45.143Z,11.59
2024-02-10T03:32:10.876Z,11.74
2024-02-10T03:35:34.760Z,11.54
2024-02-10T03:39:01.899Z,11.54
2024-02-10T03:42:24.878Z,11.55
2024-02-10T03:45:47.338Z,11.65
2024-02-10T03:49:13.714Z,11.64
2024-02-10T03:52:36.528Z,11.75
2024-02-10T03:55:59.721Z,11.65
2024-02-10T03:59:23.795Z,11.68
2024-02-10T04:02:47.148Z,11.72
2024-02-10T04:06:17.364Z,11.71
2024-02-10T04:09:43.119Z,11.58
2024-02-10T04:13:10.920Z,11.72
2024-02-10T04:16:35.153Z,11.67
2024-02-10T04:20:04.983Z,11.65
2024-02-10T04:23:31.077Z,11.69
2024-02-10T04:26:53.695Z,11.90
2024-02-10T04:30:20.624Z,11.95
2024-02-10T04:33:48.781Z,11.86
2024-02-10T04:37:12.554Z,11.88
2024-02-10T04:40:36.824Z,11.86
2024-02-10T04:44:01.102Z,12.00
2024-02-10T04:47:23.901Z,11.95
2024-02-10T04:50:46.521Z,11.95
2024-02-10T04:54:11.055Z,11.98
2024-02-10T04:57:34.897Z,11.95
2024-02-10T05:00:57.981Z,11.94
2024-02-10T05:04:20.715Z,11.83
2024-02-10T05:07:44.574Z,11.94
2024-02-10T05:11:07.237Z,11.83
2024-02-10T05:14:31.136Z,11.82
2024-02-10T05:17:55.826Z,11.69
2024-02-10T05:21:19.821Z,11.76
2024-02-10T05:24:43.787Z,11.71
2024-02-10T05:28:08.408Z,11.71
2024-02-10T05:31:36.342Z,11.73
2024-02-10T05:34:59.203Z,11.71
2024-02-10T05:38:22.955Z,11.64
2024-02-10T05:41:47.510Z,11.65
2024-02-10T05:45:11.011Z,11.62
2024-02-10T05:48:38.265Z,11.67
2024-02-10T05:52:00.905Z,11.56
2024-02-10T05:55:27.648Z,11.57
2024-02-10T05:58:50.627Z,11.53
2024-02-10T06:02:13.209Z,11.44
2024-02-10T06:05:37.535Z,11.40
2024-02-10T06:09:00.568Z,11.29
2024-02-10T06:12:23.345Z,11.27
2024-02-10T06:15:49.691Z,11.27
2024-02-10T06:19:16.465Z,11.27
2024-02-10T06:22:40.769Z,11.32
2024-02-10T06:26:03.545Z,11.29
2024-02-10T06:29:26.043Z,11.30
2024-02-10T06:32:49.045Z,11.43
2024-02-10T06:36:11.612Z,11.51
2024-02-10T06:39:37.645Z,11.58
2024-02-10T06:43:04.009Z,11.71
2024-02-10T06:46:27.148Z,11.73
2024-02-10T06:49:50.052Z,11.91
2024-02-10T06:53:13.305Z,11.92
2024-02-10T06:56:36.959Z,11.88
2024-02-10T07:00:05.361Z,11.99
2024-02-10T07:03:33.266Z,12.15
2024-02-10T07:06:56.230Z,12.25
2024-02-10T07:10:19.552Z,12.48
2024-02-10T07:13:45.208Z,12.62
2024-02-10T07:17:07.608Z,12.78
2024-02-10T07:20:34.121Z,12.84
2024-02-10T07:23:56.793Z,12.99
2024-02-10T07:27:19.984Z,13.05
2024-02-10T07:30:53.402Z,13.20
2024-02-10T07:34:16.687Z,13.29
2024-02-10T07:37:40.605Z,13.57
2024-02-10T07:41:06.402Z,13.64
2024-02-10T07:44:28.658Z,13.69
2024-02-10T07:47:52.937Z,13.81
2024-02-10T07:51:15.134Z,14.17
2024-02-10T07:54:40.379Z,14.15
2024-02-10T07:58:04.523Z,14.35
2024-02-10T08:01:28.024Z,14.45
2024-02-10T08:04:53.526Z,14.63
2024-02-10T08:08:18.981Z,14.79
2024-02-10T08:11:45.198Z,14.67
2024-02-10T08:15:12.077Z,14.83
2024-02-10T08:18:34.806Z,14.78
2024-02-10T08:21:58.951Z,15.17
2024-02-10T08:25:29.881Z,15.16
2024-02-10T08:28:56.674Z,15.56
2024-02-10T08:32:19.651Z,15.56
2024-02-10T08:35:45.919Z,15.64
2024-02-10T08:39:10.019Z,15.80
2024-02-10T08:42:36.501Z,15.95
2024-02-10T08:46:02.205Z,16.07
2024-02-10T08:49:27.537Z,15.94
2024-02-10T08:52:53.226Z,16.41
2024-02-10T08:56:17.313Z,16.75
2024-02-10T08:59:41.972Z,16.96
2024-02-10T09:03:05.012Z,17.26
2024-02-10T09:06:28.821Z,17.48
2024-02-10T09:09:53.590Z,17.36
2024-02-10T09:13:20.617Z,17.38
2024-02-10T09:16:45.442Z,17.67
2024-02-10T09:20:10.186Z,17.59
2024-02-10T09:23:32.861Z,18.16
2024-02-10T09:26:56.825Z,18.18
2024-02-10T09:30:21.484Z,17.70
2024-02-10T09:33:46.615Z,17.31
2024-02-10T09:37:09.822Z,17.50
2024-02-10T09:40:32.729Z,17.92
2024-02-10T09:43:55.210Z,18.08
2024-02-10T09:47:21.218Z,17.68
2024-02-10T09:50:44.040Z,18.01
2024-02-10T09:54:09.764Z,18.16
2024-02-10T09:57:36.755Z,18.87
2024-02-10T10:01:03.542Z,19.38
2024-02-10T10:04:27.916Z,19.12
2024-02-10T10:07:53.656Z,19.67
2024-02-10T10:11:16.635Z,18.94
2024-02-10T10:14:42.173Z,18.55
2024-02-10T10:18:07.483Z,18.73
2024-02-10T10:21:32.521Z,19.21
2024-02-10T10:24:56.365Z,18.64
2024-02-10T10:28:19.989Z,18.43
2024-02-10T10:31:46.098Z,18.74
2024-02-10T10:35:11.165Z,18.82
2024-02-10T10:38:35.351Z,18.65
2024-02-10T10:41:57.621Z,19.24
2024-02-10T10:45:29.852Z,19.05
2024-02-10T10:48:52.762Z,18.99
2024-02-10T10:52:15.753Z,18.65
2024-02-10T10:55:43.469Z,18.63
2024-02-10T10:59:11.007Z,18.39
2024-02-10T11:02:44.091Z,18.34
2024-02-10T11:06:12.362Z,18.53
2024-02-10T11:09:34.911Z,18.67
2024-02-10T11:12:59.087Z,18.87
2024-02-10T11:16:31.215Z,18.80
2024-02-10T11:20:01.415Z,19.06
2024-02-10T11:23:26.219Z,18.75
2024-02-10T11:26:50.064Z,18.96
2024-02-10T11:30:14.918Z,19.10
2024-02-10T11:33:37.609Z,18.60
2024-02-10T11:37:00.292Z,19.03
2024-02-10T11:40:22.988Z,18.96
2024-02-10T11:43:52.090Z,18.72
2024-02-10T11:47:16.544Z,18.90
2024-02-10T11:50:59.157Z,19.01
2024-02-10T11:54:30.433Z,18.31
2024-02-10T11:57:54.178Z,17.91
2024-02-10T12:01:20.325Z,17.78
2024-02-10T12:04:48.858Z,18.11
2024-02-10T12:08:14.649Z,18.27
2024-02-10T12:11:37.284Z,18.18
2024-02-10T12:15:00.499Z,19.02
2024-02-10T12:18:23.447Z,18.34
2024-02-10T12:21:49.047Z,18.00
2024-02-10T12:25:12.183Z,17.92
2024-02-10T12:28:37.097Z,18.06
2024-02-10T12:32:02.336Z,18.69
2024-02-10T12:35:24.927Z,18.96
2024-02-10T12:38:48.950Z,19.57
2024-02-10T12:42:12.076Z,19.47
2024-02-10T12:45:39.188Z,19.93
2024-02-10T12:49:02.876Z,20.34
2024-02-10T12:52:30.256Z,20.10
2024-02-10T12:55:55.243Z,19.97
2024-02-10T12:59:19.644Z,19.56
2024-02-10T13:02:42.556Z,19.58
2024-02-10T13:06:08.494Z,19.64
2024-02-10T13:09:31.042Z,19.82
2024-02-10T13:13:01.200Z,19.41
2024-02-10T13:16:24.095Z,19.68
2024-02-10T13:19:47.227Z,20.19
2024-02-10T13:23:09.797Z,20.46
2024-02-10T13:26:35.322Z,20.47
2024-02-10T13:30:12.615Z,20.21
2024-02-10T13:33:37.855Z,20.07
2024-02-10T13:37:02.332Z,20.09
2024-02-10T13:40:42.095Z,19.81
2024-02-10T13:44:21.814Z,19.54
2024-02-10T13:48:05.728Z,19.58
2024-02-10T13:51:45.711Z,19.84
2024-02-10T13:55:26.497Z,19.84
2024-02-10T13:58:47.900Z,19.42
2024-02-10T14:02:25.327Z,19.62
2024-02-10T14:05:57.398Z,19.82
2024-02-10T14:09:23.846Z,19.77
2024-02-10T14:12:51.177Z,19.50
2024-02-10T14:16:17.295Z,18.90
2024-02-10T14:19:49.640Z,18.50
2024-02-10T14:23:13.657Z,18.33
2024-02-10T14:26:44.038Z,18.13
2024-02-10T14:30:08.045Z,17.95
2024-02-10T14:33:35.141Z,17.80
2024-02-10T14:37:08.649Z,17.71
2024-02-10T14:40:35.605Z,17.59
2024-02-10T14:43:58.201Z,17.54
2024-02-10T14:47:21.169Z,17.45
2024-02-10T14:50:44.365Z,17.42
2024-02-10T14:54:11.440Z,17.31
2024-02-10T14:57:35.403Z,17.25
2024-02-10T15:00:58.609Z,17.19
2024-02-10T15:04:21.197Z,17.09
2024-02-10T15:07:43.872Z,17.09
2024-02-10T15:11:15.693Z,16.99
2024-02-10T15:14:44.951Z,16.87
2024-02-10T15:18:08.563Z,16.82
2024-02-10T15:21:34.291Z,16.68
2024-02-10T15:24:57.115Z,16.70
2024-02-10T15:28:23.437Z,16.52
2024-02-10T15:32:03.672Z,16.61
2024-02-10T15:35:28.764Z,16.47
2024-02-10T15:39:01.556Z,16.36
2024-02-10T15:42:25.296Z,16.35
2024-02-10T15:45:47.994Z,16.27
2024-02-10T15:49:14.227Z,16.30
2024-02-10T15:52:39.684Z,16.19
2024-02-10T15:56:02.526Z,16.14
2024-02-10T15:59:25.187Z,16.09
2024-02-10T16:02:51.169Z,16.07
2024-02-10T16:06:15.544Z,16.05
2024-02-10T16:09:38.295Z,16.09
2024-02-10T16:13:01.004Z,16.04
2024-02-10T16:16:24.292Z,16.04
2024-02-10T16:19:55.369Z,15.99
2024-02-10T16:23:21.388Z,16.00
2024-02-10T16:26:48.242Z,15.92
2024-02-10T16:30:14.316Z,15.88
2024-02-10T16:33:39.537Z,15.87
2024-02-10T16:37:03.863Z,15.85
2024-02-10T16:40:31.164Z,15.81
2024-02-10T16:43:54.211Z,15.87
2024-02-10T16:47:17.192Z,15.74
2024-02-10T16:50:40.140Z,15.64
2024-02-10T16:54:06.989Z,15.63
2024-02-10T16:57:34.093Z,15.73
2024-02-10T17:00:57.065Z,15.83
2024-02-10T17:04:25.692Z,15.77
2024-02-10T17:07:56.824Z,15.81
2024-02-10T17:11:19.527Z,15.76
2024-02-10T17:14:44.239Z,15.70
2024-02-10T17:18:07.326Z,15.55
2024-02-10T17:21:34.690Z,15.48
2024-02-10T17:24:59.186Z,15.45
2024-02-10T17:28:24.847Z,15.38
2024-02-10T17:31:51.721Z,15.23
2024-02-10T17:35:18.416Z,15.19
2024-02-10T17:38:41.054Z,15.17
2024-02-10T17:42:03.881Z,15.12
2024-02-10T17:45:28.140Z,14.97
2024-02-10T17:48:52.563Z,14.98
2024-02-10T17:52:15.345Z,14.91
2024-02-10T17:55:39.705Z,14.88
2024-02-10T17:59:04.397Z,14.85
2024-02-10T18:02:29.964Z,14.73
2024-02-10T18:05:55.739Z,14.79
2024-02-10T18:09:27.237Z,14.70
2024-02-10T18:12:50.195Z,14.66
2024-02-10T18:16:14.949Z,14.74
2024-02-10T18:19:38.099Z,14.69
2024-02-10T18:23:02.565Z,14.83
2024-02-10T18:26:28.063Z,14.78
2024-02-10T18:29:50.699Z,14.89
2024-02-10T18:33:14.877Z,14.89
2024-02-10T18:36:37.860Z,14.88
2024-02-10T18:40:05.515Z,14.95
2024-02-10T18:43:29.157Z,14.88
2024-02-10T18:46:57.107Z,14.85
2024-02-10T18:50:20.338Z,14.90
2024-02-10T18:53:45.081Z,14.80
2024-02-10T18:57:12.215Z,14.82
2024-02-10T19:00:34.963Z,14.74
2024-02-10T19:03:58.653Z,14.73
2024-02-10T19:07:24.752Z,14.62
2024-02-10T19:10:50.479Z,14.57
2024-02-10T19:14:18.179Z,14.42
2024-02-10T19:17:41.114Z,14.47
2024-02-10T19:21:04.131Z,14.55
2024-02-10T19:24:26.581Z,14.62
2024-02-10T19:27:50.881Z,14.53
2024-02-10T19:31:15.911Z,14.66
2024-02-10T19:34:43.584Z,14.52
2024-02-10T19:38:16.913Z,14.51
2024-02-10T19:41:46.423Z,14.41
2024-02-10T19:45:12.285Z,14.38
2024-02-10T19:48:36.751Z,14.28
2024-02-10T19:51:59.559Z,14.28
2024-02-10T19:55:22.627Z,14.26
2024-02-10T19:58:45.605Z,14.21
2024-02-10T20:02:09.263Z,14.18
2024-02-10T20:05:37.166Z,14.15
2024-02-10T20:09:03.383Z,14.23
2024-02-10T20:12:26.552Z,14.17
2024-02-10T20:15:49.260Z,14.17
2024-02-10T20:19:14.276Z,14.14
2024-02-10T20:22:39.423Z,14.11
2024-02-10T20:26:02.155Z,14.08
2024-02-10T20:29:25.612Z,14.00
2024-02-10T20:32:51.551Z,13.89
2024-02-10T20:36:14.134Z,13.85
2024-02-10T20:39:40.693Z,13.79
2024-02-10T20:43:03.465Z,13.65
2024-02-10T20:46:27.699Z,13.61
2024-02-10T20:49:53.453Z,13.47
2024-02-10T20:53:16.700Z,13.48
2024-02-10T20:56:41.102Z,13.32
2024-02-10T21:00:08.687Z,13.32
2024-02-10T21:03:34.181Z,13.23
2024-02-10T21:06:57.998Z,13.29
2024-02-10T21:10:26.314Z,13.36
2024-02-10T21:13:53.117Z,13.09
2024-02-10T21:17:15.629Z,13.03
2024-02-10T21:20:38.406Z,12.90
2024-02-10T21:24:01.006Z,12.76
2024-02-10T21:27:28.395Z,12.58
2024-02-10T21:30:52.747Z,12.63
2024-02-10T21:34:17.670Z,12.47
2024-02-10T21:37:43.208Z,12.37
2024-02-10T21:41:06.787Z,12.35
2024-02-10T21:44:33.815Z,12.21
2024-02-10T21:47:58.328Z,12.17
2024-02-10T21:51:23.901Z,12.13
2024-02-10T21:54:52.325Z,12.21
2024-02-10T21:58:15.597Z,12.12
2024-02-10T22:01:39.698Z,12.06
2024-02-10T22:05:06.636Z,11.97
2024-02-10T22:08:29.464Z,12.03
2024-02-10T22:11:52.108Z,12.00
2024-02-10T22:15:14.697Z,11.96
2024-02-10T22:18:43.958Z,12.01
2024-02-10T22:22:08.833Z,12.01
2024-02-10T22:25:34.005Z,12.04
2024-02-10T22:28:57.406Z,12.11
2024-02-10T22:32:20.018Z,12.28
2024-02-10T22:35:42.626Z,12.35
2024-02-10T22:39:13.825Z,12.31
2024-02-10T22:42:40.310Z,12.24
2024-02-10T22:46:03.427Z,12.25
2024-02-10T22:49:29.054Z,12.09
2024-02-10T22:52:52.933Z,12.18
2024-02-10T22:56:17.404Z,12.31
2024-02-10T22:59:40.732Z,12.16
2024-02-10T23:03:03.964Z,12.29
2024-02-10T23:06:38.040Z,12.30
2024-02-10T23:10:00.489Z,12.34
2024-02-10T23:13:27.255Z,12.39
2024-02-10T23:16:51.062Z,12.31
2024-02-10T23:20:15.175Z,12.19
2024-02-10T23:23:40.129Z,12.35
2024-02-10T23:27:05.697Z,12.26
2024-02-10T23:30:31.677Z,12.01
2024-02-10T23:33:55.352Z,12.11
2024-02-10T23:37:23.320Z,11.99
2024-02-10T23:40:49.076Z,12.01
2024-02-10T23:44:12.268Z,11.95
2024-02-10T23:47:37.756Z,11.99
2024-02-10T23:51:01.691Z,12.02
2024-02-10T23:54:25.070Z,11.97
2024-02-10T23:57:47.595Z,11.95
